sensor_id;sensor_type;location;lat;lon;timestamp;temperature;humidity
15926;DHT22;8062;53.882;10.642;2023-12-04T00:00:07;-1.10;99.90
15926;DHT22;8062;53.882;10.642;2023-12-04T00:01:31;-1.10;99.90
15926;DHT22;8062;53.882;10.642;2023-12-04T00:02:51;-1.20;99.90
15926;DHT22;8062;53.882;10.642;2023-12-04T00:04:10;-1.20;99.90
15926;DHT22;8062;53.882;10.642;2023-12-04T00:05:30;-1.20;99.90
15926;DHT22;8062;53.882;10.642;2023-12-04T00:06:49;-1.20;99.90
15926;DHT22;8062;53.882;10.642;2023-12-04T00:08:09;-1.30;99.90
15926;DHT22;8062;53.882;10.642;2023-12-04T00:09:29;-1.30;99.90
15926;DHT22;8062;53.882;10.642;2023-12-04T00:10:49;-1.30;99.90
15926;DHT22;8062;53.882;10.642;2023-12-04T00:12:11;-1.30;99.90
15926;DHT22;8062;53.882;10.642;2023-12-04T00:13:31;-1.30;99.90
15926;DHT22;8062;53.882;10.642;2023-12-04T00:14:51;-1.20;99.90
15926;DHT22;8062;53.882;10.642;2023-12-04T00:16:10;-1.20;99.90
15926;DHT22;8062;53.882;10.642;2023-12-04T00:17:30;-1.30;99.90
15926;DHT22;8062;53.882;10.642;2023-12-04T00:18:49;-1.30;99.90
15926;DHT22;8062;53.882;10.642;2023-12-04T00:20:09;-1.30;99.90
15926;DHT22;8062;53.882;10.642;2023-12-04T00:21:28;-1.40;99.90
15926;DHT22;8062;53.882;10.642;2023-12-04T00:22:48;-1.30;99.90
15926;DHT22;8062;53.882;10.642;2023-12-04T00:24:07;-1.20;99.90
15926;DHT22;8062;53.882;10.642;2023-12-04T00:25:27;-1.30;99.90
15926;DHT22;8062;53.882;10.642;2023-12-04T00:26:47;-1.30;99.90
15926;DHT22;8062;53.882;10.642;2023-12-04T00:28:06;-1.30;99.90
15926;DHT22;8062;53.882;10.642;2023-12-04T00:29:26;-1.30;99.90
15926;DHT22;8062;53.882;10.642;2023-12-04T00:30:46;-1.30;99.90
15926;DHT22;8062;53.882;10.642;2023-12-04T00:32:06;-1.30;99.90
15926;DHT22;8062;53.882;10.642;2023-12-04T00:33:26;-1.30;99.90
15926;DHT22;8062;53.882;10.642;2023-12-04T00:34:45;-1.30;99.90
15926;DHT22;8062;53.882;10.642;2023-12-04T00:36:05;-1.30;99.90
15926;DHT22;8062;53.882;10.642;2023-12-04T00:37:26;-1.30;99.90
15926;DHT22;8062;53.882;10.642;2023-12-04T00:38:46;-1.30;99.90
15926;DHT22;8062;53.882;10.642;2023-12-04T00:40:06;-1.30;99.90
15926;DHT22;8062;53.882;10.642;2023-12-04T00:41:26;-1.30;99.90
15926;DHT22;8062;53.882;10.642;2023-12-04T00:42:46;-1.30;99.90
15926;DHT22;8062;53.882;10.642;2023-12-04T00:44:06;-1.40;99.90
15926;DHT22;8062;53.882;10.642;2023-12-04T00:45:26;-1.40;99.90
15926;DHT22;8062;53.882;10.642;2023-12-04T00:46:45;-1.40;99.90
15926;DHT22;8062;53.882;10.642;2023-12-04T00:48:05;-1.40;99.90
15926;DHT22;8062;53.882;10.642;2023-12-04T00:49:25;-1.40;99.90
15926;DHT22;8062;53.882;10.642;2023-12-04T00:50:45;-1.40;99.90
15926;DHT22;8062;53.882;10.642;2023-12-04T00:52:04;-1.30;99.90
15926;DHT22;8062;53.882;10.642;2023-12-04T00:53:23;-1.30;99.90
15926;DHT22;8062;53.882;10.642;2023-12-04T00:54:43;-1.30;99.90
15926;DHT22;8062;53.882;10.642;2023-12-04T00:56:03;-1.30;99.90
15926;DHT22;8062;53.882;10.642;2023-12-04T00:57:23;-1.40;99.90
15926;DHT22;8062;53.882;10.642;2023-12-04T00:58:42;-1.40;99.90
15926;DHT22;8062;53.882;10.642;2023-12-04T01:00:03;-1.40;99.90
15926;DHT22;8062;53.882;10.642;2023-12-04T01:01:23;-1.40;99.90
15926;DHT22;8062;53.882;10.642;2023-12-04T01:02:42;-1.40;99.90
15926;DHT22;8062;53.882;10.642;2023-12-04T01:04:02;-1.40;99.90
15926;DHT22;8062;53.882;10.642;2023-12-04T01:05:22;-1.50;99.90
15926;DHT22;8062;53.882;10.642;2023-12-04T01:06:41;-1.50;99.90
15926;DHT22;8062;53.882;10.642;2023-12-04T01:08:01;-1.40;99.90
15926;DHT22;8062;53.882;10.642;2023-12-04T01:09:20;-1.40;99.90
15926;DHT22;8062;53.882;10.642;2023-12-04T01:10:43;-1.50;99.90
15926;DHT22;8062;53.882;10.642;2023-12-04T01:12:03;-1.50;99.90
15926;DHT22;8062;53.882;10.642;2023-12-04T01:13:23;-1.50;99.90
15926;DHT22;8062;53.882;10.642;2023-12-04T01:14:43;-1.50;99.90
15926;DHT22;8062;53.882;10.642;2023-12-04T01:16:03;-1.50;99.90
15926;DHT22;8062;53.882;10.642;2023-12-04T01:17:22;-1.60;99.90
15926;DHT22;8062;53.882;10.642;2023-12-04T01:18:42;-1.70;99.90
15926;DHT22;8062;53.882;10.642;2023-12-04T01:20:01;-1.70;99.90
15926;DHT22;8062;53.882;10.642;2023-12-04T01:21:21;-1.70;99.90
15926;DHT22;8062;53.882;10.642;2023-12-04T01:22:40;-1.70;99.90
15926;DHT22;8062;53.882;10.642;2023-12-04T01:24:00;-1.70;99.90
15926;DHT22;8062;53.882;10.642;2023-12-04T01:25:20;-1.60;99.90
15926;DHT22;8062;53.882;10.642;2023-12-04T01:26:39;-1.70;99.90
15926;DHT22;8062;53.882;10.642;2023-12-04T01:27:59;-1.70;99.90
15926;DHT22;8062;53.882;10.642;2023-12-04T01:29:19;-1.70;99.90
15926;DHT22;8062;53.882;10.642;2023-12-04T01:30:38;-1.80;99.90
15926;DHT22;8062;53.882;10.642;2023-12-04T01:31:58;-1.80;99.90
15926;DHT22;8062;53.882;10.642;2023-12-04T01:33:18;-1.80;99.90
15926;DHT22;8062;53.882;10.642;2023-12-04T01:34:38;-1.80;99.90
15926;DHT22;8062;53.882;10.642;2023-12-04T01:35:57;-1.80;99.90
15926;DHT22;8062;53.882;10.642;2023-12-04T01:37:17;-1.90;99.90
15926;DHT22;8062;53.882;10.642;2023-12-04T01:38:37;-1.90;99.90
15926;DHT22;8062;53.882;10.642;2023-12-04T01:39:57;-2.00;99.90
15926;DHT22;8062;53.882;10.642;2023-12-04T01:41:16;-1.90;99.90
15926;DHT22;8062;53.882;10.642;2023-12-04T01:42:36;-1.90;99.90
15926;DHT22;8062;53.882;10.642;2023-12-04T01:43:55;-1.90;99.90
15926;DHT22;8062;53.882;10.642;2023-12-04T01:45:15;-1.90;99.90
15926;DHT22;8062;53.882;10.642;2023-12-04T01:46:35;-1.90;99.90
15926;DHT22;8062;53.882;10.642;2023-12-04T01:47:54;-2.00;99.90
15926;DHT22;8062;53.882;10.642;2023-12-04T01:49:14;-2.00;99.90
15926;DHT22;8062;53.882;10.642;2023-12-04T01:50:35;-2.00;99.90
15926;DHT22;8062;53.882;10.642;2023-12-04T01:51:55;-2.00;99.90
15926;DHT22;8062;53.882;10.642;2023-12-04T01:53:14;-2.00;99.90
15926;DHT22;8062;53.882;10.642;2023-12-04T01:54:34;-2.00;99.90
15926;DHT22;8062;53.882;10.642;2023-12-04T01:55:54;-2.00;99.90
15926;DHT22;8062;53.882;10.642;2023-12-04T01:57:13;-2.10;99.90
15926;DHT22;8062;53.882;10.642;2023-12-04T01:58:33;-2.00;99.90
15926;DHT22;8062;53.882;10.642;2023-12-04T01:59:53;-2.00;99.90
15926;DHT22;8062;53.882;10.642;2023-12-04T02:01:13;-2.10;99.90
15926;DHT22;8062;53.882;10.642;2023-12-04T02:02:32;-2.10;99.90
15926;DHT22;8062;53.882;10.642;2023-12-04T02:03:52;-2.20;99.90
15926;DHT22;8062;53.882;10.642;2023-12-04T02:05:14;-2.10;99.90
15926;DHT22;8062;53.882;10.642;2023-12-04T02:06:34;-2.20;99.90
15926;DHT22;8062;53.882;10.642;2023-12-04T02:07:53;-2.10;99.90
15926;DHT22;8062;53.882;10.642;2023-12-04T02:09:13;-2.20;99.90
15926;DHT22;8062;53.882;10.642;2023-12-04T02:10:35;-2.20;99.90
15926;DHT22;8062;53.882;10.642;2023-12-04T02:11:55;-2.20;99.90
15926;DHT22;8062;53.882;10.642;2023-12-04T02:13:15;-2.10;99.90
15926;DHT22;8062;53.882;10.642;2023-12-04T02:14:34;-2.10;99.90
15926;DHT22;8062;53.882;10.642;2023-12-04T02:15:54;-2.20;99.90
15926;DHT22;8062;53.882;10.642;2023-12-04T02:17:16;-2.10;99.90
15926;DHT22;8062;53.882;10.642;2023-12-04T02:18:36;-2.20;99.90
15926;DHT22;8062;53.882;10.642;2023-12-04T02:19:56;-2.20;99.90
15926;DHT22;8062;53.882;10.642;2023-12-04T02:21:16;-2.20;99.90
15926;DHT22;8062;53.882;10.642;2023-12-04T02:22:37;-2.20;99.90
15926;DHT22;8062;53.882;10.642;2023-12-04T02:23:56;-2.30;99.90
15926;DHT22;8062;53.882;10.642;2023-12-04T02:25:16;-2.30;99.90
15926;DHT22;8062;53.882;10.642;2023-12-04T02:26:55;-2.30;99.90
15926;DHT22;8062;53.882;10.642;2023-12-04T02:28:18;-2.30;99.90
15926;DHT22;8062;53.882;10.642;2023-12-04T02:29:43;-2.40;99.90
15926;DHT22;8062;53.882;10.642;2023-12-04T02:31:07;-2.40;99.90
15926;DHT22;8062;53.882;10.642;2023-12-04T02:32:30;-2.40;99.90
15926;DHT22;8062;53.882;10.642;2023-12-04T02:33:52;-2.40;99.90
15926;DHT22;8062;53.882;10.642;2023-12-04T02:35:20;-2.50;99.90
15926;DHT22;8062;53.882;10.642;2023-12-04T02:36:41;-2.50;99.90
15926;DHT22;8062;53.882;10.642;2023-12-04T02:38:01;-2.50;99.90
15926;DHT22;8062;53.882;10.642;2023-12-04T02:39:21;-2.50;99.90
15926;DHT22;8062;53.882;10.642;2023-12-04T02:40:41;-2.50;99.90
15926;DHT22;8062;53.882;10.642;2023-12-04T02:42:01;-2.50;99.90
15926;DHT22;8062;53.882;10.642;2023-12-04T02:43:20;-2.50;99.90
15926;DHT22;8062;53.882;10.642;2023-12-04T02:44:40;-2.50;99.90
15926;DHT22;8062;53.882;10.642;2023-12-04T02:46:00;-2.50;99.90
15926;DHT22;8062;53.882;10.642;2023-12-04T02:47:19;-2.50;99.90
15926;DHT22;8062;53.882;10.642;2023-12-04T02:48:38;-2.50;99.90
15926;DHT22;8062;53.882;10.642;2023-12-04T02:49:58;-2.50;99.90
15926;DHT22;8062;53.882;10.642;2023-12-04T02:51:17;-2.50;99.90
15926;DHT22;8062;53.882;10.642;2023-12-04T02:52:37;-2.60;99.90
15926;DHT22;8062;53.882;10.642;2023-12-04T02:53:56;-2.60;99.90
15926;DHT22;8062;53.882;10.642;2023-12-04T02:55:16;-2.60;99.90
15926;DHT22;8062;53.882;10.642;2023-12-04T02:56:36;-2.60;99.90
15926;DHT22;8062;53.882;10.642;2023-12-04T02:57:55;-2.70;99.90
15926;DHT22;8062;53.882;10.642;2023-12-04T02:59:14;-2.70;99.90
15926;DHT22;8062;53.882;10.642;2023-12-04T03:00:34;-2.70;99.90
15926;DHT22;8062;53.882;10.642;2023-12-04T03:01:53;-2.70;99.90
15926;DHT22;8062;53.882;10.642;2023-12-04T03:03:13;-2.70;99.90
15926;DHT22;8062;53.882;10.642;2023-12-04T03:04:34;-2.80;99.90
15926;DHT22;8062;53.882;10.642;2023-12-04T03:05:54;-2.80;99.90
15926;DHT22;8062;53.882;10.642;2023-12-04T03:07:13;-2.80;99.90
15926;DHT22;8062;53.882;10.642;2023-12-04T03:08:33;-2.80;99.90
15926;DHT22;8062;53.882;10.642;2023-12-04T03:09:52;-2.80;99.90
15926;DHT22;8062;53.882;10.642;2023-12-04T03:11:12;-2.80;99.90
15926;DHT22;8062;53.882;10.642;2023-12-04T03:12:31;-2.80;99.90
15926;DHT22;8062;53.882;10.642;2023-12-04T03:13:51;-2.80;99.90
15926;DHT22;8062;53.882;10.642;2023-12-04T03:15:10;-2.90;99.90
15926;DHT22;8062;53.882;10.642;2023-12-04T03:16:31;-2.90;99.90
15926;DHT22;8062;53.882;10.642;2023-12-04T03:17:51;-3.00;99.90
15926;DHT22;8062;53.882;10.642;2023-12-04T03:19:10;-3.00;99.90
15926;DHT22;8062;53.882;10.642;2023-12-04T03:20:32;-3.00;99.90
15926;DHT22;8062;53.882;10.642;2023-12-04T03:21:51;-3.00;99.90
15926;DHT22;8062;53.882;10.642;2023-12-04T03:23:11;-3.00;99.90
15926;DHT22;8062;53.882;10.642;2023-12-04T03:24:30;-3.00;99.90
15926;DHT22;8062;53.882;10.642;2023-12-04T03:25:50;-3.00;99.90
15926;DHT22;8062;53.882;10.642;2023-12-04T03:27:10;-3.00;99.90
15926;DHT22;8062;53.882;10.642;2023-12-04T03:28:30;-3.00;99.90
15926;DHT22;8062;53.882;10.642;2023-12-04T03:29:49;-3.00;99.90
15926;DHT22;8062;53.882;10.642;2023-12-04T03:31:08;-3.00;99.90
15926;DHT22;8062;53.882;10.642;2023-12-04T03:32:28;-3.00;99.90
15926;DHT22;8062;53.882;10.642;2023-12-04T03:33:47;-3.00;99.90
15926;DHT22;8062;53.882;10.642;2023-12-04T03:35:07;-3.10;99.90
15926;DHT22;8062;53.882;10.642;2023-12-04T03:36:26;-3.10;99.90
15926;DHT22;8062;53.882;10.642;2023-12-04T03:37:45;-3.20;99.90
15926;DHT22;8062;53.882;10.642;2023-12-04T03:39:05;-3.20;99.90
15926;DHT22;8062;53.882;10.642;2023-12-04T03:40:25;-3.20;99.90
15926;DHT22;8062;53.882;10.642;2023-12-04T03:41:44;-3.20;99.90
15926;DHT22;8062;53.882;10.642;2023-12-04T03:43:04;-3.20;99.90
15926;DHT22;8062;53.882;10.642;2023-12-04T03:44:24;-3.20;99.90
15926;DHT22;8062;53.882;10.642;2023-12-04T03:45:44;-3.10;99.90
15926;DHT22;8062;53.882;10.642;2023-12-04T03:47:04;-3.20;99.90
15926;DHT22;8062;53.882;10.642;2023-12-04T03:48:23;-3.10;99.90
15926;DHT22;8062;53.882;10.642;2023-12-04T03:49:42;-3.20;99.90
15926;DHT22;8062;53.882;10.642;2023-12-04T03:51:02;-3.20;99.90
15926;DHT22;8062;53.882;10.642;2023-12-04T03:52:22;-3.30;99.90
15926;DHT22;8062;53.882;10.642;2023-12-04T03:53:41;-3.30;99.90
15926;DHT22;8062;53.882;10.642;2023-12-04T03:55:01;-3.30;99.90
15926;DHT22;8062;53.882;10.642;2023-12-04T03:56:20;-3.30;99.90
15926;DHT22;8062;53.882;10.642;2023-12-04T03:57:40;-3.30;99.90
15926;DHT22;8062;53.882;10.642;2023-12-04T03:59:00;-3.30;99.90
15926;DHT22;8062;53.882;10.642;2023-12-04T04:00:19;-3.30;99.90
15926;DHT22;8062;53.882;10.642;2023-12-04T04:01:39;-3.30;99.90
15926;DHT22;8062;53.882;10.642;2023-12-04T04:02:58;-3.40;99.90
15926;DHT22;8062;53.882;10.642;2023-12-04T04:04:18;-3.50;99.90
15926;DHT22;8062;53.882;10.642;2023-12-04T04:05:37;-3.50;99.90
15926;DHT22;8062;53.882;10.642;2023-12-04T04:06:57;-3.60;99.90
15926;DHT22;8062;53.882;10.642;2023-12-04T04:08:17;-3.60;99.90
15926;DHT22;8062;53.882;10.642;2023-12-04T04:09:36;-3.60;99.90
15926;DHT22;8062;53.882;10.642;2023-12-04T04:10:56;-3.70;99.90
15926;DHT22;8062;53.882;10.642;2023-12-04T04:12:16;-3.70;99.90
15926;DHT22;8062;53.882;10.642;2023-12-04T04:13:35;-3.70;99.90
15926;DHT22;8062;53.882;10.642;2023-12-04T04:14:55;-3.70;99.90
15926;DHT22;8062;53.882;10.642;2023-12-04T04:16:15;-3.70;99.90
15926;DHT22;8062;53.882;10.642;2023-12-04T04:17:35;-3.70;99.90
15926;DHT22;8062;53.882;10.642;2023-12-04T04:18:55;-3.80;99.90
15926;DHT22;8062;53.882;10.642;2023-12-04T04:20:14;-3.80;99.90
15926;DHT22;8062;53.882;10.642;2023-12-04T04:21:34;-3.80;99.90
15926;DHT22;8062;53.882;10.642;2023-12-04T04:22:53;-3.80;99.90
15926;DHT22;8062;53.882;10.642;2023-12-04T04:24:13;-3.70;99.90
15926;DHT22;8062;53.882;10.642;2023-12-04T04:25:33;-3.60;99.90
15926;DHT22;8062;53.882;10.642;2023-12-04T04:26:52;-3.60;99.90
15926;DHT22;8062;53.882;10.642;2023-12-04T04:28:12;-3.60;99.90
15926;DHT22;8062;53.882;10.642;2023-12-04T04:29:31;-3.60;99.90
15926;DHT22;8062;53.882;10.642;2023-12-04T04:30:51;-3.60;99.90
15926;DHT22;8062;53.882;10.642;2023-12-04T04:32:10;-3.70;99.90
15926;DHT22;8062;53.882;10.642;2023-12-04T04:33:29;-3.70;99.90
15926;DHT22;8062;53.882;10.642;2023-12-04T04:34:49;-3.70;99.90
15926;DHT22;8062;53.882;10.642;2023-12-04T04:36:10;-3.60;99.90
15926;DHT22;8062;53.882;10.642;2023-12-04T04:37:29;-3.60;99.90
15926;DHT22;8062;53.882;10.642;2023-12-04T04:38:49;-3.50;99.90
15926;DHT22;8062;53.882;10.642;2023-12-04T04:40:08;-3.50;99.90
15926;DHT22;8062;53.882;10.642;2023-12-04T04:41:28;-3.50;99.90
15926;DHT22;8062;53.882;10.642;2023-12-04T04:42:48;-3.50;99.90
15926;DHT22;8062;53.882;10.642;2023-12-04T04:44:07;-3.50;99.90
15926;DHT22;8062;53.882;10.642;2023-12-04T04:45:27;-3.50;99.90
15926;DHT22;8062;53.882;10.642;2023-12-04T04:46:46;-3.60;99.90
15926;DHT22;8062;53.882;10.642;2023-12-04T04:48:06;-3.50;99.90
15926;DHT22;8062;53.882;10.642;2023-12-04T04:49:26;-3.50;99.90
15926;DHT22;8062;53.882;10.642;2023-12-04T04:50:45;-3.40;99.90
15926;DHT22;8062;53.882;10.642;2023-12-04T04:52:05;-3.30;99.90
15926;DHT22;8062;53.882;10.642;2023-12-04T04:53:24;-3.30;99.90
15926;DHT22;8062;53.882;10.642;2023-12-04T04:54:44;-3.30;99.90
15926;DHT22;8062;53.882;10.642;2023-12-04T04:56:03;-3.40;99.90
15926;DHT22;8062;53.882;10.642;2023-12-04T04:57:23;-3.30;99.90
15926;DHT22;8062;53.882;10.642;2023-12-04T04:58:43;-3.40;99.90
15926;DHT22;8062;53.882;10.642;2023-12-04T05:00:02;-3.40;99.90
15926;DHT22;8062;53.882;10.642;2023-12-04T05:01:22;-3.40;99.90
15926;DHT22;8062;53.882;10.642;2023-12-04T05:02:42;-3.50;99.90
15926;DHT22;8062;53.882;10.642;2023-12-04T05:04:01;-3.60;99.90
15926;DHT22;8062;53.882;10.642;2023-12-04T05:05:21;-3.60;99.90
15926;DHT22;8062;53.882;10.642;2023-12-04T05:06:41;-3.60;99.90
15926;DHT22;8062;53.882;10.642;2023-12-04T05:08:00;-3.60;99.90
15926;DHT22;8062;53.882;10.642;2023-12-04T05:09:19;-3.60;99.90
15926;DHT22;8062;53.882;10.642;2023-12-04T05:10:39;-3.60;99.90
15926;DHT22;8062;53.882;10.642;2023-12-04T05:11:59;-3.60;99.90
15926;DHT22;8062;53.882;10.642;2023-12-04T05:13:18;-3.70;99.90
15926;DHT22;8062;53.882;10.642;2023-12-04T05:14:38;-3.60;99.90
15926;DHT22;8062;53.882;10.642;2023-12-04T05:15:57;-3.60;99.90
15926;DHT22;8062;53.882;10.642;2023-12-04T05:17:16;-3.60;99.90
15926;DHT22;8062;53.882;10.642;2023-12-04T05:18:36;-3.60;99.90
15926;DHT22;8062;53.882;10.642;2023-12-04T05:19:55;-3.70;99.90
15926;DHT22;8062;53.882;10.642;2023-12-04T05:21:15;-3.70;99.90
15926;DHT22;8062;53.882;10.642;2023-12-04T05:22:35;-3.70;99.90
15926;DHT22;8062;53.882;10.642;2023-12-04T05:23:54;-3.70;99.90
15926;DHT22;8062;53.882;10.642;2023-12-04T05:25:14;-3.70;99.90
15926;DHT22;8062;53.882;10.642;2023-12-04T05:26:33;-3.70;99.90
15926;DHT22;8062;53.882;10.642;2023-12-04T05:27:53;-3.70;99.90
15926;DHT22;8062;53.882;10.642;2023-12-04T05:29:13;-3.70;99.90
15926;DHT22;8062;53.882;10.642;2023-12-04T05:30:32;-3.70;99.90
15926;DHT22;8062;53.882;10.642;2023-12-04T05:31:52;-3.70;99.90
15926;DHT22;8062;53.882;10.642;2023-12-04T05:33:11;-3.70;99.90
15926;DHT22;8062;53.882;10.642;2023-12-04T05:34:31;-3.70;99.90
15926;DHT22;8062;53.882;10.642;2023-12-04T05:35:51;-3.70;99.90
15926;DHT22;8062;53.882;10.642;2023-12-04T05:37:11;-3.70;99.90
15926;DHT22;8062;53.882;10.642;2023-12-04T05:38:30;-3.70;99.90
15926;DHT22;8062;53.882;10.642;2023-12-04T05:39:50;-3.70;99.90
15926;DHT22;8062;53.882;10.642;2023-12-04T05:41:09;-3.70;99.90
15926;DHT22;8062;53.882;10.642;2023-12-04T05:42:29;-3.60;99.90
15926;DHT22;8062;53.882;10.642;2023-12-04T05:43:48;-3.60;99.90
15926;DHT22;8062;53.882;10.642;2023-12-04T05:45:08;-3.60;99.90
15926;DHT22;8062;53.882;10.642;2023-12-04T05:46:27;-3.50;99.90
15926;DHT22;8062;53.882;10.642;2023-12-04T05:47:47;-3.50;99.90
15926;DHT22;8062;53.882;10.642;2023-12-04T05:49:06;-3.50;99.90
15926;DHT22;8062;53.882;10.642;2023-12-04T05:50:26;-3.50;99.90
15926;DHT22;8062;53.882;10.642;2023-12-04T05:51:46;-3.50;99.90
15926;DHT22;8062;53.882;10.642;2023-12-04T05:53:06;-3.50;99.90
15926;DHT22;8062;53.882;10.642;2023-12-04T05:54:27;-3.50;99.90
15926;DHT22;8062;53.882;10.642;2023-12-04T05:55:46;-3.50;99.90
15926;DHT22;8062;53.882;10.642;2023-12-04T05:57:06;-3.50;99.90
15926;DHT22;8062;53.882;10.642;2023-12-04T05:58:25;-3.50;99.90
15926;DHT22;8062;53.882;10.642;2023-12-04T05:59:45;-3.50;99.90
15926;DHT22;8062;53.882;10.642;2023-12-04T06:01:05;-3.50;99.90
15926;DHT22;8062;53.882;10.642;2023-12-04T06:02:25;-3.40;99.90
15926;DHT22;8062;53.882;10.642;2023-12-04T06:03:47;-3.50;99.90
15926;DHT22;8062;53.882;10.642;2023-12-04T06:05:06;-3.40;99.90
15926;DHT22;8062;53.882;10.642;2023-12-04T06:06:27;-3.50;99.90
15926;DHT22;8062;53.882;10.642;2023-12-04T06:07:47;-3.40;99.90
15926;DHT22;8062;53.882;10.642;2023-12-04T06:09:06;-3.50;99.90
15926;DHT22;8062;53.882;10.642;2023-12-04T06:10:26;-3.50;99.90
15926;DHT22;8062;53.882;10.642;2023-12-04T06:11:45;-3.50;99.90
15926;DHT22;8062;53.882;10.642;2023-12-04T06:13:05;-3.50;99.90
15926;DHT22;8062;53.882;10.642;2023-12-04T06:14:25;-3.50;99.90
15926;DHT22;8062;53.882;10.642;2023-12-04T06:15:44;-3.60;99.90
15926;DHT22;8062;53.882;10.642;2023-12-04T06:17:04;-3.50;99.90
15926;DHT22;8062;53.882;10.642;2023-12-04T06:18:25;-3.50;99.90
15926;DHT22;8062;53.882;10.642;2023-12-04T06:19:46;-3.50;99.90
15926;DHT22;8062;53.882;10.642;2023-12-04T06:21:06;-3.50;99.90
15926;DHT22;8062;53.882;10.642;2023-12-04T06:22:25;-3.60;99.90
15926;DHT22;8062;53.882;10.642;2023-12-04T06:23:46;-3.60;99.90
15926;DHT22;8062;53.882;10.642;2023-12-04T06:25:06;-3.60;99.90
15926;DHT22;8062;53.882;10.642;2023-12-04T06:26:26;-3.60;99.90
15926;DHT22;8062;53.882;10.642;2023-12-04T06:27:45;-3.60;99.90
15926;DHT22;8062;53.882;10.642;2023-12-04T06:29:05;-3.60;99.90
15926;DHT22;8062;53.882;10.642;2023-12-04T06:30:26;-3.70;99.90
15926;DHT22;8062;53.882;10.642;2023-12-04T06:31:46;-3.70;99.90
15926;DHT22;8062;53.882;10.642;2023-12-04T06:33:07;-3.70;99.90
15926;DHT22;8062;53.882;10.642;2023-12-04T06:34:27;-3.60;99.90
15926;DHT22;8062;53.882;10.642;2023-12-04T06:35:47;-3.60;99.90
15926;DHT22;8062;53.882;10.642;2023-12-04T06:37:10;-3.60;99.90
15926;DHT22;8062;53.882;10.642;2023-12-04T06:38:32;-3.60;99.90
15926;DHT22;8062;53.882;10.642;2023-12-04T06:39:53;-3.60;99.90
15926;DHT22;8062;53.882;10.642;2023-12-04T06:41:13;-3.60;99.90
15926;DHT22;8062;53.882;10.642;2023-12-04T06:42:34;-3.50;99.90
15926;DHT22;8062;53.882;10.642;2023-12-04T06:43:54;-3.50;99.90
15926;DHT22;8062;53.882;10.642;2023-12-04T06:45:13;-3.50;99.90
15926;DHT22;8062;53.882;10.642;2023-12-04T06:46:37;-3.50;99.90
15926;DHT22;8062;53.882;10.642;2023-12-04T06:47:57;-3.40;99.90
15926;DHT22;8062;53.882;10.642;2023-12-04T06:49:18;-3.40;99.90
15926;DHT22;8062;53.882;10.642;2023-12-04T06:50:38;-3.40;99.90
15926;DHT22;8062;53.882;10.642;2023-12-04T06:51:58;-3.30;99.90
15926;DHT22;8062;53.882;10.642;2023-12-04T06:53:18;-3.30;99.90
15926;DHT22;8062;53.882;10.642;2023-12-04T06:54:37;-3.30;99.90
15926;DHT22;8062;53.882;10.642;2023-12-04T06:55:57;-3.30;99.90
15926;DHT22;8062;53.882;10.642;2023-12-04T06:57:17;-3.30;99.90
15926;DHT22;8062;53.882;10.642;2023-12-04T06:58:36;-3.20;99.90
15926;DHT22;8062;53.882;10.642;2023-12-04T06:59:56;-3.20;99.90
15926;DHT22;8062;53.882;10.642;2023-12-04T07:01:16;-3.30;99.90
15926;DHT22;8062;53.882;10.642;2023-12-04T07:02:35;-3.30;99.90
15926;DHT22;8062;53.882;10.642;2023-12-04T07:03:54;-3.20;99.90
15926;DHT22;8062;53.882;10.642;2023-12-04T07:05:14;-3.20;99.90
15926;DHT22;8062;53.882;10.642;2023-12-04T07:06:34;-3.20;99.90
15926;DHT22;8062;53.882;10.642;2023-12-04T07:07:54;-3.20;99.90
15926;DHT22;8062;53.882;10.642;2023-12-04T07:09:14;-3.20;99.90
15926;DHT22;8062;53.882;10.642;2023-12-04T07:10:33;-3.30;99.90
15926;DHT22;8062;53.882;10.642;2023-12-04T07:11:53;-3.20;99.90
15926;DHT22;8062;53.882;10.642;2023-12-04T07:13:14;-3.20;99.90
15926;DHT22;8062;53.882;10.642;2023-12-04T07:14:33;-3.20;99.90
15926;DHT22;8062;53.882;10.642;2023-12-04T07:15:53;-3.20;99.90
15926;DHT22;8062;53.882;10.642;2023-12-04T07:17:12;-3.10;99.90
15926;DHT22;8062;53.882;10.642;2023-12-04T07:18:32;-3.20;99.90
15926;DHT22;8062;53.882;10.642;2023-12-04T07:19:51;-3.20;99.90
15926;DHT22;8062;53.882;10.642;2023-12-04T07:21:12;-3.20;99.90
15926;DHT22;8062;53.882;10.642;2023-12-04T07:22:32;-3.20;99.90
15926;DHT22;8062;53.882;10.642;2023-12-04T07:23:52;-3.20;99.90
15926;DHT22;8062;53.882;10.642;2023-12-04T07:25:11;-3.20;99.90
15926;DHT22;8062;53.882;10.642;2023-12-04T07:26:31;-3.10;99.90
15926;DHT22;8062;53.882;10.642;2023-12-04T07:27:51;-3.10;99.90
15926;DHT22;8062;53.882;10.642;2023-12-04T07:29:11;-3.10;99.90
15926;DHT22;8062;53.882;10.642;2023-12-04T07:30:30;-3.00;99.90
15926;DHT22;8062;53.882;10.642;2023-12-04T07:31:51;-3.00;99.90
15926;DHT22;8062;53.882;10.642;2023-12-04T07:33:10;-3.00;99.90
15926;DHT22;8062;53.882;10.642;2023-12-04T07:34:30;-3.00;99.90
15926;DHT22;8062;53.882;10.642;2023-12-04T07:35:49;-3.00;99.90
15926;DHT22;8062;53.882;10.642;2023-12-04T07:37:11;-3.00;99.90
15926;DHT22;8062;53.882;10.642;2023-12-04T07:38:31;-3.00;99.90
15926;DHT22;8062;53.882;10.642;2023-12-04T07:39:50;-3.00;99.90
15926;DHT22;8062;53.882;10.642;2023-12-04T07:41:10;-3.00;99.90
15926;DHT22;8062;53.882;10.642;2023-12-04T07:42:30;-2.90;99.90
15926;DHT22;8062;53.882;10.642;2023-12-04T07:43:49;-2.90;99.90
15926;DHT22;8062;53.882;10.642;2023-12-04T07:45:10;-2.90;99.90
15926;DHT22;8062;53.882;10.642;2023-12-04T07:46:29;-2.90;99.90
15926;DHT22;8062;53.882;10.642;2023-12-04T07:47:49;-2.90;99.90
15926;DHT22;8062;53.882;10.642;2023-12-04T07:49:10;-2.90;99.90
15926;DHT22;8062;53.882;10.642;2023-12-04T07:50:29;-2.80;99.90
15926;DHT22;8062;53.882;10.642;2023-12-04T07:51:49;-2.90;99.90
15926;DHT22;8062;53.882;10.642;2023-12-04T07:53:08;-2.80;99.90
15926;DHT22;8062;53.882;10.642;2023-12-04T07:54:29;-2.80;99.90
15926;DHT22;8062;53.882;10.642;2023-12-04T07:55:49;-2.90;99.90
15926;DHT22;8062;53.882;10.642;2023-12-04T07:57:10;-2.80;99.90
15926;DHT22;8062;53.882;10.642;2023-12-04T07:58:30;-2.80;99.90
15926;DHT22;8062;53.882;10.642;2023-12-04T07:59:50;-2.80;99.90
15926;DHT22;8062;53.882;10.642;2023-12-04T08:01:10;-2.80;99.90
15926;DHT22;8062;53.882;10.642;2023-12-04T08:02:29;-2.80;99.90
15926;DHT22;8062;53.882;10.642;2023-12-04T08:03:50;-2.80;99.90
15926;DHT22;8062;53.882;10.642;2023-12-04T08:05:09;-2.70;99.90
15926;DHT22;8062;53.882;10.642;2023-12-04T08:06:29;-2.70;99.90
15926;DHT22;8062;53.882;10.642;2023-12-04T08:07:49;-2.70;99.90
15926;DHT22;8062;53.882;10.642;2023-12-04T08:09:08;-2.60;99.90
15926;DHT22;8062;53.882;10.642;2023-12-04T08:10:29;-2.60;99.90
15926;DHT22;8062;53.882;10.642;2023-12-04T08:11:49;-2.60;99.90
15926;DHT22;8062;53.882;10.642;2023-12-04T08:13:08;-2.60;99.90
15926;DHT22;8062;53.882;10.642;2023-12-04T08:14:28;-2.60;99.90
15926;DHT22;8062;53.882;10.642;2023-12-04T08:15:47;-2.60;99.90
15926;DHT22;8062;53.882;10.642;2023-12-04T08:17:07;-2.60;99.90
15926;DHT22;8062;53.882;10.642;2023-12-04T08:18:26;-2.60;99.90
15926;DHT22;8062;53.882;10.642;2023-12-04T08:19:45;-2.60;99.90
15926;DHT22;8062;53.882;10.642;2023-12-04T08:21:05;-2.60;99.90
15926;DHT22;8062;53.882;10.642;2023-12-04T08:22:25;-2.60;99.90
15926;DHT22;8062;53.882;10.642;2023-12-04T08:23:44;-2.60;99.90